private Wetterstation Struckum
Wetterdaten: aktuell Donnerstag, 07.04.2022 04:15
Datum Zeit Temp. A. Feuchte A. Luftdruck Regen Wind Richtung Richtung Sonnenschein Solar Taupunkt Windchill Windben
07.04.2022 04:15 7,1 C 90 % 982,5 hPa 1,5 l/m 26,7 km/h (4 Bft) S-SW 201 0 min 0 W/m 5,6 C -2,6 C 37,0 km/h (5 Bft)
07.04.2022 03:15 7,0 C 90 % 983,8 hPa 0,9 l/m 24,2 km/h (4 Bft) SW 220 0 min 0 W/m 5,5 C -2,0 C 27,4 km/h (5 Bft)
07.04.2022 02:15 6,9 C 90 % 984,9 hPa 0,0 l/m 32,5 km/h (5 Bft) SW 229 0 min 0 W/m 5,4 C -4,3 C 40,2 km/h (6 Bft)
07.04.2022 01:15 7,4 C 90 % 985,7 hPa 0,0 l/m 30,0 km/h (5 Bft) SW 227 0 min 0 W/m 5,9 C -3,0 C 35,4 km/h (5 Bft)
07.04.2022 00:15 7,3 C 90 % 986,1 hPa 1,5 l/m 23,5 km/h (4 Bft) W-SW 243 0 min 0 W/m 5,8 C -1,4 C 27,4 km/h (5 Bft)
06.04.2022 23:15 8,0 C 90 % 986,6 hPa 1,5 l/m 35,8 km/h (5 Bft) SW 226 0 min 0 W/m 6,5 C -3,4 C 45,1 km/h (6 Bft)
06.04.2022 22:15 7,7 C 90 % 986,7 hPa 2,7 l/m 36,3 km/h (5 Bft) SW 220 0 min 0 W/m 6,2 C -3,9 C 48,3 km/h (6 Bft)
06.04.2022 21:15 7,7 C 90 % 987,8 hPa 1,5 l/m 22,0 km/h (4 Bft) S-SW 198 0 min 0 W/m 6,2 C -0,4 C 30,6 km/h (5 Bft)
06.04.2022 20:15 7,9 C 90 % 988,6 hPa 0,6 l/m 26,2 km/h (4 Bft) SW 228 0 min 0 W/m 6,4 C -1,3 C 30,6 km/h (5 Bft)
06.04.2022 19:15 8,0 C 89 % 989,3 hPa 0,0 l/m 25,7 km/h (4 Bft) W-SW 244 0 min 12 W/m 6,3 C -1,1 C 30,6 km/h (5 Bft)
06.04.2022 18:15 8,4 C 89 % 989,9 hPa 0,0 l/m 36,9 km/h (5 Bft) W-SW 246 0 min 53 W/m 6,7 C -3,0 C 45,1 km/h (6 Bft)
06.04.2022 17:15 8,6 C 89 % 990,3 hPa 0,0 l/m 37,4 km/h (5 Bft) W-SW 250 0 min 155 W/m 6,9 C -2,8 C 45,1 km/h (6 Bft)
06.04.2022 16:13 8,2 C 90 % 990,9 hPa 0,0 l/m 38,2 km/h (6 Bft) SW 231 0 min 56 W/m 6,7 C -3,5 C 41,8 km/h (6 Bft)
06.04.2022 15:13 8,0 C 90 % 991,3 hPa 0,3 l/m 41,9 km/h (6 Bft) SW 219 0 min 114 W/m 6,5 C -4,4 C 51,5 km/h (7 Bft)
06.04.2022 14:13 7,8 C 90 % 991,6 hPa 0,3 l/m 45,7 km/h (6 Bft) SW 228 0 min 62 W/m 6,3 C -5,2 C 51,5 km/h (7 Bft)
06.04.2022 13:13 7,9 C 90 % 991,9 hPa 0,6 l/m 44,2 km/h (6 Bft) SW 227 0 min 109 W/m 6,4 C -4,8 C 53,1 km/h (7 Bft)
06.04.2022 12:13 8,0 C 89 % 992,3 hPa 0,0 l/m 39,1 km/h (6 Bft) W-SW 241 0 min 58 W/m 6,3 C -3,9 C 48,3 km/h (6 Bft)
06.04.2022 11:13 7,9 C 90 % 992,3 hPa 0,0 l/m 45,0 km/h (6 Bft) SW 234 0 min 100 W/m 6,4 C -4,9 C 51,5 km/h (7 Bft)
06.04.2022 10:13 7,7 C 91 % 992,4 hPa 0,3 l/m 40,2 km/h (6 Bft) SW 225 0 min 100 W/m 6,3 C -4,5 C 46,7 km/h (6 Bft)
06.04.2022 09:13 7,3 C 91 % 992,6 hPa 0,0 l/m 42,4 km/h (6 Bft) W-SW 242 0 min 37 W/m 5,9 C -5,5 C 53,1 km/h (7 Bft)
06.04.2022 08:13 7,1 C 91 % 992,6 hPa 0,3 l/m 42,8 km/h (6 Bft) SW 227 0 min 12 W/m 5,7 C -5,8 C 48,3 km/h (6 Bft)
06.04.2022 05:00 6,4 C 91 % 994,2 hPa 0,0 l/m 29,0 km/h (5 Bft) W-SW 247 0 min 0 W/m 5,0 C -4,2 C 35,3 km/h (5 Bft)
_ Min-Zeit 05:00 12:08 04:11 - 03:31 - - - - 05:00 08:06 03:31
Minimum _ 6,4 C 89 % 982,5 hPa - 13,8 km/h (3 Bft) - - - - 5,0 C -6,3 C 17,7 km/h (3 Bft)
_ Max-Zeit 17:14 05:00 05:05 22:12 22:54 - - 05:00 15:28 17:14 03:31 09:41
Maximum _ 8,6 C 91 % 994,3 hPa 0,6 l/m 53,3 km/h
SW (7 Bft)
- - 0 min 204 W/m 6,9 C 2,0 C 61,2 km/h
SW (7 Bft)
Durchschnitt _ 7,5 C 90 % 990,1 hPa #12,3 l/m 35,0 km/h (5 Bft) SW - #0 min. 0 W/m 6,0 C -3,7 C 42,0 km/h (6 Bft)
Betreiber: Carsten-Andreas Lorenzen